createdAt,value
2019-05-07T00:00:59.530Z,3.47
2019-05-07T00:03:25.599Z,3.70
2019-05-07T00:05:53.749Z,2.70
2019-05-07T00:08:19.676Z,3.33
2019-05-07T00:10:45.788Z,3.07
2019-05-07T00:13:12.841Z,2.63
2019-05-07T00:15:41.937Z,4.20
2019-05-07T00:18:08.180Z,3.57
2019-05-07T00:20:34.524Z,3.07
2019-05-07T00:23:02.748Z,3.10
2019-05-07T00:25:28.943Z,3.27
2019-05-07T00:27:55.392Z,4.80
2019-05-07T00:30:22.357Z,3.47
2019-05-07T00:32:49.268Z,3.50
2019-05-07T00:35:23.415Z,3.43
2019-05-07T00:38:02.532Z,3.93
2019-05-07T00:40:32.117Z,2.57
2019-05-07T00:43:07.020Z,3.57
2019-05-07T00:45:38.469Z,3.63
2019-05-07T00:48:05.207Z,3.43
2019-05-07T00:50:33.263Z,3.03
2019-05-07T00:53:02.015Z,2.90
2019-05-07T00:55:28.211Z,2.90
2019-05-07T00:57:54.262Z,3.30
2019-05-07T01:00:22.306Z,2.53
2019-05-07T01:02:49.128Z,2.93
2019-05-07T01:05:15.180Z,2.80
2019-05-07T01:07:42.055Z,3.33
2019-05-07T01:10:12.592Z,3.23
2019-05-07T01:12:38.468Z,2.83
2019-05-07T01:15:06.083Z,2.90
2019-05-07T01:17:33.520Z,3.03
2019-05-07T01:20:00.114Z,2.73
2019-05-07T01:22:26.957Z,2.87
2019-05-07T01:24:53.910Z,2.70
2019-05-07T01:27:22.431Z,3.27
2019-05-07T01:29:48.583Z,3.03
2019-05-07T01:32:16.902Z,3.03
2019-05-07T01:34:53.424Z,2.67
2019-05-07T01:37:19.846Z,2.70
2019-05-07T01:39:46.191Z,3.10
2019-05-07T01:42:12.850Z,3.10
2019-05-07T01:44:39.209Z,3.50
2019-05-07T01:47:05.300Z,3.13
2019-05-07T01:49:33.095Z,3.27
2019-05-07T01:52:02.503Z,2.73
2019-05-07T01:54:28.997Z,2.63
2019-05-07T01:56:56.314Z,3.40
2019-05-07T01:59:22.689Z,2.83
2019-05-07T02:01:52.282Z,3.70
2019-05-07T02:04:32.808Z,2.47
2019-05-07T02:07:12.701Z,2.83
2019-05-07T02:09:42.484Z,3.23
2019-05-07T02:12:13.121Z,2.90
2019-05-07T02:14:39.460Z,3.37
2019-05-07T02:17:05.543Z,3.13
2019-05-07T02:19:32.958Z,2.50
2019-05-07T02:22:02.581Z,2.50
2019-05-07T02:24:28.464Z,2.77
2019-05-07T02:26:54.980Z,2.87
2019-05-07T02:29:22.809Z,2.40
2019-05-07T02:31:49.009Z,3.23
2019-05-07T02:34:15.448Z,2.63
2019-05-07T02:36:43.294Z,2.60
2019-05-07T02:39:12.837Z,2.70
2019-05-07T02:41:39.778Z,2.07
2019-05-07T02:44:06.196Z,2.43
2019-05-07T02:46:37.720Z,3.30
2019-05-07T02:49:23.490Z,2.80
2019-05-07T02:51:58.136Z,2.60
2019-05-07T02:54:43.718Z,2.63
2019-05-07T02:57:16.616Z,2.83
2019-05-07T02:59:39.137Z,2.73
2019-05-07T03:02:05.220Z,2.50
2019-05-07T03:04:33.296Z,2.50
2019-05-07T03:06:59.661Z,2.57
2019-05-07T03:09:26.711Z,3.00
2019-05-07T03:11:53.091Z,2.97
2019-05-07T03:14:19.676Z,2.93
2019-05-07T03:16:49.399Z,2.87
2019-05-07T03:19:15.720Z,2.90
2019-05-07T03:21:54.628Z,2.40
2019-05-07T03:24:25.712Z,2.73
2019-05-07T03:26:53.513Z,2.27
2019-05-07T03:29:24.052Z,2.70
2019-05-07T03:31:56.083Z,2.57
2019-05-07T03:34:25.711Z,2.60
2019-05-07T03:36:56.372Z,2.70
2019-05-07T03:39:23.818Z,2.90
2019-05-07T03:41:49.130Z,2.60
2019-05-07T03:44:26.881Z,2.40
2019-05-07T03:47:01.812Z,2.30
2019-05-07T03:49:28.843Z,3.00
2019-05-07T03:51:57.822Z,2.27
2019-05-07T03:54:24.059Z,2.67
2019-05-07T03:56:52.801Z,2.33
2019-05-07T03:59:18.903Z,2.50
2019-05-07T04:01:44.961Z,2.40
2019-05-07T04:04:13.194Z,2.70
2019-05-07T04:06:39.006Z,2.53
2019-05-07T04:09:05.136Z,2.10
2019-05-07T04:11:33.709Z,2.50
2019-05-07T04:14:02.335Z,2.70
2019-05-07T04:16:27.473Z,2.00
2019-05-07T04:18:53.885Z,2.17
2019-05-07T04:21:22.981Z,2.07
2019-05-07T04:23:50.080Z,2.60
2019-05-07T04:26:33.881Z,2.60
2019-05-07T04:29:05.670Z,1.80
2019-05-07T04:31:34.208Z,2.40
2019-05-07T04:34:03.803Z,1.80
2019-05-07T04:36:34.100Z,1.87
2019-05-07T04:39:03.065Z,2.10
2019-05-07T04:41:28.388Z,1.87
2019-05-07T04:43:54.775Z,2.00
2019-05-07T04:46:23.630Z,2.00
2019-05-07T04:48:49.283Z,2.60
2019-05-07T04:51:17.542Z,2.00
2019-05-07T04:53:43.627Z,2.80
2019-05-07T04:56:09.929Z,1.93
2019-05-07T04:58:36.632Z,2.17
2019-05-07T05:01:04.868Z,2.00
2019-05-07T05:03:33.963Z,2.57
2019-05-07T05:05:58.908Z,2.60
2019-05-07T05:08:25.164Z,2.40
2019-05-07T05:10:53.695Z,2.40
2019-05-07T05:13:19.520Z,2.30
2019-05-07T05:15:45.988Z,2.07
2019-05-07T05:18:12.884Z,2.10
2019-05-07T05:20:43.023Z,2.67
2019-05-07T05:23:14.087Z,1.87
2019-05-07T05:25:43.162Z,2.30
2019-05-07T05:28:12.259Z,2.47
2019-05-07T05:30:55.125Z,2.37
2019-05-07T05:33:23.278Z,2.27
2019-05-07T05:35:49.180Z,2.30
2019-05-07T05:38:15.238Z,2.43
2019-05-07T05:40:42.655Z,2.40
2019-05-07T05:43:28.633Z,2.33
2019-05-07T05:45:59.788Z,2.80
2019-05-07T05:48:26.139Z,2.57
2019-05-07T05:50:54.713Z,2.80
2019-05-07T05:53:35.044Z,1.97
2019-05-07T05:56:19.204Z,2.43
2019-05-07T05:59:03.852Z,2.60
2019-05-07T06:01:37.490Z,2.97
2019-05-07T06:04:22.157Z,3.13
2019-05-07T06:06:53.971Z,4.23
2019-05-07T06:09:35.202Z,4.60
2019-05-07T06:12:08.708Z,3.30
2019-05-07T06:14:37.024Z,2.87
2019-05-07T06:17:12.953Z,3.20
2019-05-07T06:19:42.400Z,3.60
2019-05-07T06:22:12.830Z,2.90
2019-05-07T06:24:43.265Z,3.17
2019-05-07T06:27:09.411Z,2.73
2019-05-07T06:29:35.602Z,3.13
2019-05-07T06:32:03.548Z,3.20
2019-05-07T06:34:30.901Z,3.03
2019-05-07T06:36:58.453Z,2.90
2019-05-07T06:39:26.824Z,2.70
2019-05-07T06:42:12.694Z,3.17
2019-05-07T06:44:39.642Z,2.40
2019-05-07T06:47:05.688Z,2.40
2019-05-07T06:49:32.452Z,2.63
2019-05-07T06:51:59.608Z,2.90
2019-05-07T06:54:26.021Z,2.57
2019-05-07T06:56:52.440Z,2.30
2019-05-07T06:59:23.330Z,2.57
2019-05-07T07:01:57.520Z,2.50
2019-05-07T07:04:28.752Z,3.10
2019-05-07T07:07:01.777Z,3.13
2019-05-07T07:09:38.759Z,2.53
2019-05-07T07:12:12.956Z,2.63
2019-05-07T07:14:42.382Z,2.87
2019-05-07T07:17:09.640Z,2.50
2019-05-07T07:19:36.341Z,2.90
2019-05-07T07:22:03.780Z,2.67
2019-05-07T07:24:29.827Z,2.80
2019-05-07T07:26:55.912Z,2.50
2019-05-07T07:29:24.204Z,2.67
2019-05-07T07:31:52.827Z,2.93
2019-05-07T07:34:22.687Z,3.33
2019-05-07T07:37:06.122Z,2.60
2019-05-07T07:39:24.860Z,2.10
2019-05-07T07:41:53.459Z,2.37
2019-05-07T07:44:19.547Z,2.10
2019-05-07T07:46:45.599Z,2.50
2019-05-07T07:49:14.950Z,2.53
2019-05-07T07:51:42.721Z,2.87
2019-05-07T07:54:07.956Z,2.83
2019-05-07T07:56:49.149Z,2.43
2019-05-07T07:59:17.846Z,2.43
2019-05-07T08:01:46.117Z,2.80
2019-05-07T08:04:13.236Z,2.40
2019-05-07T08:06:39.288Z,2.13
2019-05-07T08:09:07.700Z,2.70
2019-05-07T08:11:33.752Z,2.43
2019-05-07T08:14:02.199Z,2.90
2019-05-07T08:16:27.827Z,2.60
2019-05-07T08:18:54.117Z,2.40
2019-05-07T08:21:22.534Z,2.00
2019-05-07T08:23:48.167Z,2.80
2019-05-07T08:26:14.535Z,2.13
2019-05-07T08:28:41.903Z,2.43
2019-05-07T08:31:26.959Z,2.20
2019-05-07T08:34:02.115Z,3.20
2019-05-07T08:36:28.732Z,2.20
2019-05-07T08:38:57.012Z,2.40
2019-05-07T08:41:25.331Z,2.60
2019-05-07T08:44:07.313Z,2.50
2019-05-07T08:46:35.879Z,2.93
2019-05-07T08:49:02.745Z,2.30
2019-05-07T08:51:29.138Z,2.53
2019-05-07T08:54:04.477Z,2.47
2019-05-07T08:56:31.942Z,2.20
2019-05-07T08:58:58.452Z,2.07
2019-05-07T09:01:24.536Z,2.20
2019-05-07T09:03:52.033Z,2.83
2019-05-07T09:06:22.074Z,2.47
2019-05-07T09:08:48.492Z,2.17
2019-05-07T09:11:14.854Z,1.87
2019-05-07T09:13:42.091Z,2.30
2019-05-07T09:16:09.165Z,2.73
2019-05-07T09:18:35.559Z,2.20
2019-05-07T09:21:02.268Z,2.70
2019-05-07T09:23:28.468Z,2.63
2019-05-07T09:25:54.856Z,2.57
2019-05-07T09:28:22.245Z,2.77
2019-05-07T09:30:56.668Z,2.60
2019-05-07T09:33:24.760Z,1.97
2019-05-07T09:35:53.088Z,2.20
2019-05-07T09:38:19.833Z,2.30
2019-05-07T09:40:46.000Z,2.60
2019-05-07T09:43:12.050Z,1.90
2019-05-07T09:45:38.116Z,2.40
2019-05-07T09:48:04.691Z,2.53
2019-05-07T09:50:32.530Z,2.23
2019-05-07T09:53:02.126Z,2.40
2019-05-07T09:55:28.245Z,2.87
2019-05-07T09:57:54.300Z,2.60
2019-05-07T10:00:22.596Z,2.40
2019-05-07T10:02:49.704Z,2.13
2019-05-07T10:05:16.232Z,2.77
2019-05-07T10:07:42.503Z,2.50
2019-05-07T10:10:11.960Z,2.40
2019-05-07T10:12:48.036Z,2.13
2019-05-07T10:15:16.235Z,2.03
2019-05-07T10:17:47.716Z,2.77
2019-05-07T10:20:21.528Z,2.47
2019-05-07T10:22:43.551Z,2.60
2019-05-07T10:25:11.983Z,2.20
2019-05-07T10:27:41.668Z,1.83
2019-05-07T10:30:09.611Z,2.00
2019-05-07T10:32:37.064Z,2.50
2019-05-07T10:35:05.543Z,1.90
2019-05-07T10:37:32.053Z,1.97
2019-05-07T10:39:59.111Z,2.37
2019-05-07T10:42:25.192Z,2.03
2019-05-07T10:44:53.833Z,2.13
2019-05-07T10:47:41.832Z,1.67
2019-05-07T10:50:13.989Z,2.00
2019-05-07T10:52:42.356Z,2.40
2019-05-07T10:55:08.336Z,2.50
2019-05-07T10:57:34.392Z,2.10
2019-05-07T11:00:03.025Z,2.10
2019-05-07T11:02:32.493Z,2.20
2019-05-07T11:05:01.839Z,2.07
2019-05-07T11:07:28.296Z,1.93
2019-05-07T11:09:54.720Z,2.37
2019-05-07T11:12:22.829Z,2.30
2019-05-07T11:14:49.212Z,2.40
2019-05-07T11:17:19.713Z,2.80
2019-05-07T11:19:45.795Z,2.07
2019-05-07T11:22:11.844Z,1.97
2019-05-07T11:24:38.291Z,2.33
2019-05-07T11:27:04.685Z,2.63
2019-05-07T11:29:32.769Z,2.10
2019-05-07T11:31:58.952Z,2.50
2019-05-07T11:34:25.002Z,2.30
2019-05-07T11:36:52.373Z,2.33
2019-05-07T11:39:19.067Z,2.40
2019-05-07T11:41:56.096Z,2.43
2019-05-07T11:44:24.053Z,2.30
2019-05-07T11:47:04.494Z,3.00
2019-05-07T11:49:49.648Z,2.50
2019-05-07T11:52:16.096Z,2.60
2019-05-07T11:54:42.247Z,2.20
2019-05-07T11:57:08.570Z,3.13
2019-05-07T11:59:34.627Z,3.33
2019-05-07T12:02:02.837Z,2.40
2019-05-07T12:04:29.287Z,2.17
2019-05-07T12:06:56.003Z,2.43
2019-05-07T12:09:22.052Z,2.60
2019-05-07T12:11:48.140Z,2.67
2019-05-07T12:14:27.361Z,2.87
2019-05-07T12:16:42.802Z,2.50
2019-05-07T12:19:09.037Z,2.47
2019-05-07T12:21:35.091Z,2.37
2019-05-07T12:24:02.130Z,2.10
2019-05-07T12:26:32.272Z,2.10
2019-05-07T12:28:59.019Z,2.70
2019-05-07T12:31:35.784Z,2.87
2019-05-07T12:34:04.061Z,2.90
2019-05-07T12:36:32.038Z,2.40
2019-05-07T12:38:59.084Z,2.40
2019-05-07T12:41:33.851Z,2.67
2019-05-07T12:44:04.129Z,2.80
2019-05-07T12:46:33.135Z,2.70
2019-05-07T12:49:00.170Z,2.60
2019-05-07T12:51:34.452Z,3.00
2019-05-07T12:54:13.408Z,2.43
2019-05-07T12:56:39.492Z,2.20
2019-05-07T12:59:05.540Z,2.50
2019-05-07T13:01:33.825Z,2.70
2019-05-07T13:04:04.894Z,2.70
2019-05-07T13:06:32.602Z,2.63
2019-05-07T13:08:59.990Z,2.37
2019-05-07T13:11:26.319Z,2.60
2019-05-07T13:13:52.802Z,2.47
2019-05-07T13:16:19.132Z,2.70
2019-05-07T13:18:45.220Z,1.83
2019-05-07T13:21:11.913Z,2.80
2019-05-07T13:23:38.721Z,2.80
2019-05-07T13:26:05.248Z,2.30
2019-05-07T13:28:32.067Z,2.13
2019-05-07T13:30:58.155Z,2.77
2019-05-07T13:33:25.713Z,2.53
2019-05-07T13:35:52.301Z,2.00
2019-05-07T13:38:29.479Z,1.90
2019-05-07T13:41:14.065Z,2.17
2019-05-07T13:43:59.507Z,2.40
2019-05-07T13:46:27.194Z,2.47
2019-05-07T13:48:54.820Z,2.37
2019-05-07T13:51:22.304Z,2.00
2019-05-07T13:53:48.728Z,2.30
2019-05-07T13:56:15.481Z,2.40
2019-05-07T13:58:42.870Z,2.70
2019-05-07T14:01:14.286Z,2.67
2019-05-07T14:03:40.367Z,2.27
2019-05-07T14:06:06.708Z,2.23
2019-05-07T14:08:34.663Z,2.37
2019-05-07T14:11:02.791Z,2.40
2019-05-07T14:13:29.060Z,2.20
2019-05-07T14:16:09.049Z,2.60
2019-05-07T14:18:39.772Z,2.27
2019-05-07T14:21:07.559Z,2.53
2019-05-07T14:23:34.047Z,2.40
2019-05-07T14:26:01.988Z,2.40
2019-05-07T14:28:29.992Z,2.20
2019-05-07T14:30:56.731Z,2.20
2019-05-07T14:33:41.392Z,1.53
2019-05-07T14:36:11.525Z,2.20
2019-05-07T14:38:42.722Z,2.77
2019-05-07T14:41:09.192Z,2.10
2019-05-07T14:43:37.534Z,2.33
2019-05-07T14:46:03.899Z,2.37
2019-05-07T14:48:30.253Z,2.43
2019-05-07T14:50:56.321Z,1.80
2019-05-07T14:53:22.867Z,2.00
2019-05-07T14:55:49.218Z,2.10
2019-05-07T14:58:15.543Z,2.33
2019-05-07T15:00:42.760Z,2.43
2019-05-07T15:03:12.269Z,1.97
2019-05-07T15:05:38.529Z,2.10
2019-05-07T15:08:10.489Z,2.10
2019-05-07T15:10:32.674Z,2.00
2019-05-07T15:12:58.842Z,2.43
2019-05-07T15:15:25.280Z,2.27
2019-05-07T15:18:00.284Z,2.00
2019-05-07T15:20:26.651Z,2.30
2019-05-07T15:22:58.366Z,2.10
2019-05-07T15:25:25.452Z,2.40
2019-05-07T15:27:52.789Z,2.53
2019-05-07T15:30:21.913Z,2.00
2019-05-07T15:32:48.779Z,2.10
2019-05-07T15:35:14.832Z,1.77
2019-05-07T15:37:42.689Z,2.13
2019-05-07T15:40:11.517Z,2.07
2019-05-07T15:42:37.572Z,2.23
2019-05-07T15:45:05.305Z,2.60
2019-05-07T15:47:33.292Z,2.17
2019-05-07T15:49:59.601Z,2.23
2019-05-07T15:52:42.833Z,2.00
2019-05-07T15:55:09.260Z,2.13
2019-05-07T15:57:38.565Z,2.33
2019-05-07T16:00:08.185Z,2.03
2019-05-07T16:02:36.138Z,1.87
2019-05-07T16:05:05.232Z,2.00
2019-05-07T16:07:32.809Z,2.10
2019-05-07T16:09:59.936Z,2.03
2019-05-07T16:12:26.020Z,2.10
2019-05-07T16:14:52.569Z,2.30
2019-05-07T16:17:21.718Z,2.07
2019-05-07T16:19:53.149Z,2.53
2019-05-07T16:22:19.643Z,1.63
2019-05-07T16:24:45.695Z,3.80
2019-05-07T16:27:12.235Z,2.57
2019-05-07T16:29:38.928Z,2.03
2019-05-07T16:32:05.380Z,2.20
2019-05-07T16:34:32.593Z,1.67
2019-05-07T16:37:03.494Z,2.00
2019-05-07T16:39:28.184Z,1.90
2019-05-07T16:41:54.512Z,2.27
2019-05-07T16:44:22.415Z,2.10
2019-05-07T16:46:48.812Z,1.97
2019-05-07T16:49:14.864Z,2.17
2019-05-07T16:51:44.203Z,2.57
2019-05-07T16:54:09.545Z,2.20
2019-05-07T16:56:37.529Z,2.20
2019-05-07T16:59:08.099Z,1.80
2019-05-07T17:01:34.152Z,2.00
2019-05-07T17:04:02.788Z,2.30
2019-05-07T17:06:29.280Z,2.10
2019-05-07T17:08:57.232Z,2.27
2019-05-07T17:11:23.715Z,2.53
2019-05-07T17:13:51.907Z,2.53
2019-05-07T17:16:18.379Z,2.20
2019-05-07T17:18:44.464Z,2.17
2019-05-07T17:21:12.313Z,2.40
2019-05-07T17:23:44.257Z,2.30
2019-05-07T17:26:07.235Z,2.20
2019-05-07T17:28:33.620Z,2.23
2019-05-07T17:31:02.913Z,2.50
2019-05-07T17:33:28.544Z,2.30
2019-05-07T17:35:54.593Z,2.30
2019-05-07T17:38:22.835Z,2.20
2019-05-07T17:40:48.959Z,2.40
2019-05-07T17:43:15.376Z,2.23
2019-05-07T17:45:42.937Z,2.00
2019-05-07T17:48:09.896Z,2.30
2019-05-07T17:50:42.559Z,2.50
2019-05-07T17:53:08.907Z,1.97
2019-05-07T17:55:35.087Z,2.03
2019-05-07T17:58:02.010Z,1.83
2019-05-07T18:00:29.101Z,2.50
2019-05-07T18:03:06.380Z,2.20
2019-05-07T18:05:32.737Z,2.43
2019-05-07T18:07:58.820Z,2.97
2019-05-07T18:10:25.240Z,2.80
2019-05-07T18:12:53.630Z,2.23
2019-05-07T18:15:19.296Z,1.80
2019-05-07T18:18:12.826Z,2.13
2019-05-07T18:20:38.752Z,2.20
2019-05-07T18:23:07.735Z,2.10
2019-05-07T18:25:33.167Z,2.83
2019-05-07T18:27:59.252Z,2.20
2019-05-07T18:30:25.300Z,2.13
2019-05-07T18:32:53.599Z,2.10
2019-05-07T18:35:20.053Z,2.83
2019-05-07T18:37:52.703Z,3.30
2019-05-07T18:40:21.187Z,2.70
2019-05-07T18:42:47.649Z,2.70
2019-05-07T18:45:13.684Z,2.13
2019-05-07T18:47:40.100Z,1.97
2019-05-07T18:50:06.647Z,2.10
2019-05-07T18:52:32.941Z,2.20
2019-05-07T18:54:59.028Z,2.37
2019-05-07T18:57:25.506Z,2.60
2019-05-07T18:59:53.185Z,2.10
2019-05-07T19:02:20.008Z,2.30
2019-05-07T19:04:48.323Z,2.00
2019-05-07T19:07:14.671Z,2.47
2019-05-07T19:09:42.400Z,1.90
2019-05-07T19:12:12.893Z,2.50
2019-05-07T19:14:38.594Z,2.00
2019-05-07T19:17:04.941Z,2.70
2019-05-07T19:19:32.800Z,2.30
2019-05-07T19:21:59.548Z,2.20
2019-05-07T19:24:26.438Z,2.60
2019-05-07T19:26:53.652Z,2.63
2019-05-07T19:29:23.091Z,2.23
2019-05-07T19:31:48.333Z,2.73
2019-05-07T19:34:14.414Z,2.60
2019-05-07T19:36:42.400Z,2.20
2019-05-07T19:39:09.076Z,2.27
2019-05-07T19:41:38.033Z,2.13
2019-05-07T19:44:06.481Z,2.60
2019-05-07T19:46:34.840Z,2.63
2019-05-07T19:49:03.285Z,2.33
2019-05-07T19:51:32.063Z,2.73
2019-05-07T19:54:02.098Z,2.83
2019-05-07T19:56:32.441Z,2.37
2019-05-07T19:59:01.196Z,2.40
2019-05-07T20:01:32.308Z,2.43
2019-05-07T20:04:02.579Z,2.50
2019-05-07T20:06:32.458Z,2.43
2019-05-07T20:09:11.472Z,2.37
2019-05-07T20:11:35.864Z,2.40
2019-05-07T20:14:04.639Z,2.53
2019-05-07T20:16:33.278Z,2.57
2019-05-07T20:19:02.103Z,3.03
2019-05-07T20:21:32.611Z,2.70
2019-05-07T20:24:01.858Z,2.73
2019-05-07T20:26:32.638Z,2.47
2019-05-07T20:29:03.022Z,2.63
2019-05-07T20:31:33.134Z,2.20
2019-05-07T20:34:02.318Z,2.30
2019-05-07T20:36:32.697Z,2.50
2019-05-07T20:39:02.181Z,3.00
2019-05-07T20:41:32.866Z,2.60
2019-05-07T20:44:02.879Z,2.60
2019-05-07T20:46:32.261Z,2.53
2019-05-07T20:49:02.716Z,2.53
2019-05-07T20:51:32.504Z,2.43
2019-05-07T20:54:14.734Z,2.50
2019-05-07T20:56:46.772Z,2.47
2019-05-07T20:59:15.340Z,2.67
2019-05-07T21:01:43.819Z,3.20
2019-05-07T21:04:12.939Z,2.30
2019-05-07T21:06:43.169Z,2.83
2019-05-07T21:09:12.684Z,2.83
2019-05-07T21:11:43.022Z,2.67
2019-05-07T21:14:12.153Z,2.80
2019-05-07T21:16:42.450Z,2.60
2019-05-07T21:19:12.763Z,2.90
2019-05-07T21:21:42.187Z,2.83
2019-05-07T21:24:13.017Z,2.50
2019-05-07T21:26:42.472Z,2.50
2019-05-07T21:29:13.478Z,2.80
2019-05-07T21:31:43.102Z,2.43
2019-05-07T21:34:12.390Z,2.03
2019-05-07T21:36:42.976Z,2.93
2019-05-07T21:39:12.938Z,2.93
2019-05-07T21:41:42.644Z,2.83
2019-05-07T21:44:11.303Z,2.33
2019-05-07T21:46:39.804Z,2.67
2019-05-07T21:49:08.252Z,2.73
2019-05-07T21:51:36.392Z,2.70
2019-05-07T21:54:06.144Z,2.80
2019-05-07T21:56:36.259Z,3.00
2019-05-07T21:59:06.859Z,2.80
2019-05-07T22:01:43.637Z,3.00
2019-05-07T22:04:12.706Z,2.67
2019-05-07T22:06:42.889Z,3.10
2019-05-07T22:09:12.846Z,2.70
2019-05-07T22:11:42.741Z,3.37
2019-05-07T22:14:12.909Z,2.97
2019-05-07T22:16:42.515Z,3.50
2019-05-07T22:19:12.311Z,2.27
2019-05-07T22:21:43.255Z,3.50
2019-05-07T22:24:13.062Z,2.87
2019-05-07T22:26:42.085Z,3.63
2019-05-07T22:29:12.555Z,3.03
2019-05-07T22:31:45.568Z,3.47
2019-05-07T22:34:15.652Z,3.17
2019-05-07T22:36:44.476Z,4.27
2019-05-07T22:39:12.917Z,3.60
2019-05-07T22:41:42.509Z,3.27
2019-05-07T22:44:12.024Z,2.80
2019-05-07T22:46:42.196Z,3.57
2019-05-07T22:49:12.237Z,3.60
2019-05-07T22:51:41.299Z,3.00
2019-05-07T22:54:11.739Z,3.30
2019-05-07T22:56:59.277Z,3.27
2019-05-07T22:59:27.796Z,3.37
2019-05-07T23:01:56.232Z,3.40
2019-05-07T23:04:32.576Z,3.57
2019-05-07T23:07:02.260Z,3.67
2019-05-07T23:09:31.395Z,3.57
2019-05-07T23:12:01.756Z,3.60
2019-05-07T23:14:30.288Z,3.50
2019-05-07T23:16:58.427Z,3.93
2019-05-07T23:19:26.530Z,3.73
2019-05-07T23:21:55.011Z,3.30
2019-05-07T23:24:24.926Z,3.50
2019-05-07T23:26:53.912Z,3.60
2019-05-07T23:29:22.866Z,3.00
2019-05-07T23:31:52.889Z,2.87
2019-05-07T23:34:22.390Z,2.90
2019-05-07T23:36:53.000Z,3.73
2019-05-07T23:39:22.283Z,3.33
2019-05-07T23:41:52.644Z,3.50
2019-05-07T23:44:22.981Z,2.80
2019-05-07T23:46:52.519Z,3.77
2019-05-07T23:49:22.993Z,3.57
2019-05-07T23:51:52.813Z,3.00
2019-05-07T23:54:22.918Z,3.53
2019-05-07T23:57:05.381Z,3.77
2019-05-07T23:59:22.277Z,3.67
